createdAt,value
2023-04-08T00:00:38.539Z,11.00
2023-04-08T00:03:08.244Z,11.00
2023-04-08T00:05:36.586Z,11.00
2023-04-08T00:08:05.304Z,11.00
2023-04-08T00:10:33.457Z,11.00
2023-04-08T00:13:02.982Z,11.00
2023-04-08T00:15:52.453Z,11.00
2023-04-08T00:18:24.974Z,11.00
2023-04-08T00:20:54.300Z,11.00
2023-04-08T00:23:24.804Z,11.00
2023-04-08T00:25:52.885Z,11.00
2023-04-08T00:28:21.590Z,10.90
2023-04-08T00:30:52.567Z,11.00
2023-04-08T00:33:22.266Z,10.90
2023-04-08T00:35:51.152Z,11.00
2023-04-08T00:38:19.370Z,11.00
2023-04-08T00:40:49.015Z,10.90
2023-04-08T00:43:21.334Z,11.00
2023-04-08T00:45:49.856Z,11.00
2023-04-08T00:48:20.570Z,11.00
2023-04-08T00:50:51.724Z,11.00
2023-04-08T00:53:22.207Z,11.00
2023-04-08T00:55:51.766Z,11.00
2023-04-08T00:58:20.165Z,11.00
2023-04-08T01:00:56.721Z,11.00
2023-04-08T01:03:31.847Z,11.00
2023-04-08T01:06:11.090Z,11.00
2023-04-08T01:08:42.840Z,11.00
2023-04-08T01:11:13.383Z,11.00
2023-04-08T01:13:46.294Z,11.00
2023-04-08T01:16:17.723Z,11.00
2023-04-08T01:18:49.925Z,11.00
2023-04-08T01:21:23.245Z,11.10
2023-04-08T01:24:03.198Z,11.00
2023-04-08T01:26:33.082Z,11.00
2023-04-08T01:29:03.098Z,11.00
2023-04-08T01:31:32.930Z,11.00
2023-04-08T01:34:02.965Z,11.00
2023-04-08T01:36:33.787Z,11.00
2023-04-08T01:39:03.191Z,11.00
2023-04-08T01:41:35.271Z,11.00
2023-04-08T01:44:05.172Z,11.00
2023-04-08T01:46:34.421Z,11.00
2023-04-08T01:49:03.390Z,11.00
2023-04-08T01:51:33.217Z,11.00
2023-04-08T01:54:01.441Z,11.00
2023-04-08T01:56:34.232Z,11.00
2023-04-08T01:59:03.868Z,11.00
2023-04-08T02:01:35.373Z,11.00
2023-04-08T02:04:05.493Z,11.00
2023-04-08T02:06:35.141Z,11.00
2023-04-08T02:09:04.212Z,11.00
2023-04-08T02:11:38.662Z,11.00
2023-04-08T02:14:27.557Z,11.00
2023-04-08T02:17:04.552Z,11.00
2023-04-08T02:19:41.813Z,11.10
2023-04-08T02:22:18.899Z,11.00
2023-04-08T02:24:49.248Z,11.00
2023-04-08T02:27:23.537Z,11.00
2023-04-08T02:29:53.525Z,11.00
2023-04-08T02:32:22.921Z,11.00
2023-04-08T02:34:52.181Z,11.00
2023-04-08T02:37:20.562Z,11.00
2023-04-08T02:39:55.679Z,11.00
2023-04-08T02:42:25.281Z,11.00
2023-04-08T02:44:53.974Z,10.90
2023-04-08T02:47:22.132Z,10.90
2023-04-08T02:49:53.260Z,10.90
2023-04-08T02:52:22.567Z,10.90
2023-04-08T02:55:11.662Z,10.90
2023-04-08T02:57:43.703Z,10.90
2023-04-08T03:00:13.100Z,10.90
2023-04-08T03:02:41.532Z,10.90
2023-04-08T03:05:10.705Z,10.90
2023-04-08T03:07:39.670Z,10.80
2023-04-08T03:10:09.403Z,10.80
2023-04-08T03:12:38.258Z,10.80
2023-04-08T03:15:08.898Z,10.90
2023-04-08T03:17:36.972Z,10.80
2023-04-08T03:20:06.098Z,10.80
2023-04-08T03:22:35.045Z,10.90
2023-04-08T03:25:05.905Z,10.80
2023-04-08T03:27:34.257Z,10.90
2023-04-08T03:30:02.333Z,10.90
2023-04-08T03:32:34.729Z,10.90
2023-04-08T03:35:22.806Z,10.90
2023-04-08T03:37:51.477Z,10.90
2023-04-08T03:40:19.915Z,10.90
2023-04-08T03:42:48.311Z,10.90
2023-04-08T03:45:16.732Z,10.90
2023-04-08T03:47:47.350Z,10.90
2023-04-08T03:50:17.976Z,10.90
2023-04-08T03:52:46.279Z,10.90
2023-04-08T03:55:14.715Z,10.90
2023-04-08T03:57:42.857Z,10.90
2023-04-08T04:00:11.998Z,10.90
2023-04-08T04:02:40.500Z,10.90
2023-04-08T04:05:10.734Z,10.90
2023-04-08T04:07:38.850Z,10.90
2023-04-08T04:10:07.955Z,10.90
2023-04-08T04:12:36.117Z,10.90
2023-04-08T04:15:04.412Z,10.90
2023-04-08T04:17:35.798Z,10.90
2023-04-08T04:20:06.388Z,10.90
2023-04-08T04:22:35.952Z,10.90
2023-04-08T04:25:04.102Z,10.80
2023-04-08T04:27:32.690Z,10.90
2023-04-08T04:30:04.777Z,10.90
2023-04-08T04:32:33.397Z,10.90
2023-04-08T04:35:21.600Z,10.90
2023-04-08T04:37:51.896Z,10.90
2023-04-08T04:40:20.289Z,10.80
2023-04-08T04:43:08.514Z,10.80
2023-04-08T04:45:36.584Z,10.80
2023-04-08T04:48:06.176Z,10.80
2023-04-08T04:50:35.597Z,10.80
2023-04-08T04:53:05.374Z,10.80
2023-04-08T04:55:33.475Z,10.80
2023-04-08T04:58:06.499Z,10.80
2023-04-08T05:00:35.282Z,10.80
2023-04-08T05:03:03.777Z,10.80
2023-04-08T05:05:32.365Z,10.80
2023-04-08T05:08:03.082Z,10.80
2023-04-08T05:10:33.204Z,10.80
2023-04-08T05:13:03.579Z,10.80
2023-04-08T05:15:34.498Z,10.70
2023-04-08T05:18:22.510Z,10.70
2023-04-08T05:20:50.749Z,10.70
2023-04-08T05:23:19.094Z,10.70
2023-04-08T05:25:48.455Z,10.80
2023-04-08T05:28:18.015Z,10.70
2023-04-08T05:30:50.599Z,10.70
2023-04-08T05:33:18.650Z,10.70
2023-04-08T05:35:47.258Z,10.70
2023-04-08T05:38:15.628Z,10.70
2023-04-08T05:40:43.582Z,10.70
2023-04-08T05:43:13.115Z,10.70
2023-04-08T05:45:41.372Z,10.70
2023-04-08T05:48:09.332Z,10.60
2023-04-08T05:50:37.399Z,10.70
2023-04-08T05:53:05.470Z,10.60
2023-04-08T05:55:33.816Z,10.60
2023-04-08T05:58:01.891Z,10.60
2023-04-08T06:00:31.422Z,10.60
2023-04-08T06:02:59.598Z,10.60
2023-04-08T06:05:27.836Z,10.60
2023-04-08T06:07:56.009Z,10.60
2023-04-08T06:10:24.300Z,10.60
2023-04-08T06:12:52.284Z,10.60
2023-04-08T06:15:21.258Z,10.60
2023-04-08T06:17:50.912Z,10.60
2023-04-08T06:20:19.030Z,10.70
2023-04-08T06:22:47.164Z,10.60
2023-04-08T06:25:15.186Z,10.60
2023-04-08T06:27:43.194Z,10.60
2023-04-08T06:30:11.821Z,10.60
2023-04-08T06:32:39.970Z,10.60
2023-04-08T06:35:10.044Z,10.60
2023-04-08T06:37:38.801Z,10.70
2023-04-08T06:40:08.344Z,10.70
2023-04-08T06:42:38.446Z,10.70
2023-04-08T06:45:07.731Z,10.70
2023-04-08T06:47:35.774Z,10.70
2023-04-08T06:50:03.808Z,10.70
2023-04-08T06:52:33.184Z,10.70
2023-04-08T06:55:01.222Z,10.70
2023-04-08T06:57:29.161Z,10.70
2023-04-08T06:59:57.441Z,10.70
2023-04-08T07:02:25.576Z,10.70
2023-04-08T07:04:53.626Z,10.70
2023-04-08T07:07:21.964Z,10.70
2023-04-08T07:09:51.450Z,10.70
2023-04-08T07:12:19.567Z,10.70
2023-04-08T07:14:47.685Z,10.70
2023-04-08T07:17:16.041Z,10.70
2023-04-08T07:19:44.199Z,10.70
2023-04-08T07:22:12.234Z,10.70
2023-04-08T07:24:43.450Z,10.80
2023-04-08T07:27:12.919Z,10.80
2023-04-08T07:29:40.960Z,10.80
2023-04-08T07:32:09.114Z,10.90
2023-04-08T07:34:37.373Z,10.90
2023-04-08T07:37:05.704Z,11.00
2023-04-08T07:39:33.753Z,11.10
2023-04-08T07:42:01.977Z,11.10
2023-04-08T07:44:31.575Z,11.20
2023-04-08T07:46:59.806Z,11.20
2023-04-08T07:49:27.956Z,11.20
2023-04-08T07:51:55.958Z,11.30
2023-04-08T07:54:24.007Z,11.40
2023-04-08T07:56:52.237Z,11.40
2023-04-08T07:59:20.220Z,11.40
2023-04-08T08:01:49.581Z,11.50
2023-04-08T08:04:18.336Z,11.50
2023-04-08T08:06:47.553Z,11.60
2023-04-08T08:09:15.720Z,11.70
2023-04-08T08:11:43.856Z,11.70
2023-04-08T08:14:13.834Z,11.70
2023-04-08T08:16:42.555Z,11.70
2023-04-08T08:19:13.942Z,11.80
2023-04-08T08:21:42.216Z,11.80
2023-04-08T08:24:10.193Z,11.80
2023-04-08T08:26:38.315Z,11.80
2023-04-08T08:29:08.943Z,11.80
2023-04-08T08:31:37.057Z,11.80
2023-04-08T08:34:05.152Z,11.90
2023-04-08T08:36:34.968Z,11.90
2023-04-08T08:39:03.115Z,11.90
2023-04-08T08:41:35.418Z,11.90
2023-04-08T08:44:04.382Z,11.80
2023-04-08T08:46:32.634Z,11.90
2023-04-08T08:49:00.906Z,11.80
2023-04-08T08:51:29.671Z,11.80
2023-04-08T08:53:59.100Z,11.80
2023-04-08T08:56:28.097Z,11.80
2023-04-08T08:58:56.136Z,11.80
2023-04-08T09:01:34.671Z,11.80
2023-04-08T09:04:15.822Z,11.80
2023-04-08T09:06:45.155Z,11.80
2023-04-08T09:09:15.058Z,11.80
2023-04-08T09:11:45.189Z,11.80
2023-04-08T09:14:26.283Z,11.90
2023-04-08T09:16:56.372Z,11.90
2023-04-08T09:19:24.377Z,11.90
2023-04-08T09:22:08.549Z,11.90
2023-04-08T09:24:39.542Z,11.90
2023-04-08T09:27:07.640Z,11.90
2023-04-08T09:29:39.656Z,12.00
2023-04-08T09:32:08.163Z,12.00
2023-04-08T09:34:36.697Z,12.10
2023-04-08T09:37:04.694Z,12.10
2023-04-08T09:39:32.601Z,12.20
2023-04-08T09:42:03.833Z,12.20
2023-04-08T09:44:34.606Z,12.30
2023-04-08T09:47:10.092Z,12.40
2023-04-08T09:49:43.416Z,12.50
2023-04-08T09:52:14.814Z,12.60
2023-04-08T09:54:49.203Z,12.70
2023-04-08T09:57:26.594Z,12.80
2023-04-08T10:00:08.968Z,12.90
2023-04-08T10:02:46.821Z,13.00
2023-04-08T10:05:16.133Z,13.10
2023-04-08T10:07:44.195Z,13.10
2023-04-08T10:10:12.474Z,13.10
2023-04-08T10:12:42.088Z,13.10
2023-04-08T10:15:30.486Z,13.10
2023-04-08T10:18:37.814Z,13.10
2023-04-08T10:21:06.087Z,13.20
2023-04-08T10:23:56.815Z,13.20
2023-04-08T10:26:35.946Z,13.20
2023-04-08T10:29:42.762Z,13.20
2023-04-08T10:32:29.785Z,13.10
2023-04-08T10:34:58.153Z,13.10
2023-04-08T10:37:26.216Z,13.10
2023-04-08T10:39:55.828Z,13.10
2023-04-08T10:42:29.562Z,13.00
2023-04-08T10:45:03.066Z,13.00
2023-04-08T10:47:32.414Z,13.00
2023-04-08T10:50:00.930Z,13.00
2023-04-08T10:52:29.221Z,13.10
2023-04-08T10:54:57.255Z,13.10
2023-04-08T10:57:25.790Z,13.10
2023-04-08T10:59:53.738Z,13.10
2023-04-08T11:02:21.773Z,13.10
2023-04-08T11:04:51.348Z,13.10
2023-04-08T11:07:21.736Z,13.20
2023-04-08T11:09:50.789Z,13.20
2023-04-08T11:12:19.659Z,13.20
2023-04-08T11:14:49.593Z,13.20
2023-04-08T11:17:17.828Z,13.20
2023-04-08T11:19:45.886Z,13.20
2023-04-08T11:22:15.227Z,13.30
2023-04-08T11:24:44.151Z,13.30
2023-04-08T11:27:12.164Z,13.30
2023-04-08T11:29:40.912Z,13.30
2023-04-08T11:32:09.926Z,13.40
2023-04-08T11:34:41.770Z,13.40
2023-04-08T11:37:09.732Z,13.40
2023-04-08T11:39:44.395Z,13.40
2023-04-08T11:42:27.777Z,13.50
2023-04-08T11:44:55.817Z,13.50
2023-04-08T11:47:24.060Z,13.50
2023-04-08T11:49:52.104Z,13.50
2023-04-08T11:52:20.071Z,13.60
2023-04-08T11:54:50.090Z,13.70
2023-04-08T11:57:30.493Z,13.70
2023-04-08T11:59:58.547Z,13.80
2023-04-08T12:02:26.711Z,13.70
2023-04-08T12:04:54.765Z,13.80
2023-04-08T12:07:22.720Z,13.90
2023-04-08T12:09:51.967Z,13.90
2023-04-08T12:12:19.993Z,13.80
2023-04-08T12:14:47.935Z,13.90
2023-04-08T12:17:16.035Z,14.00
2023-04-08T12:19:44.053Z,14.00
2023-04-08T12:22:12.305Z,14.10
2023-04-08T12:24:40.338Z,14.00
2023-04-08T12:27:09.770Z,14.10
2023-04-08T12:29:37.724Z,14.10
2023-04-08T12:32:05.736Z,14.10
2023-04-08T12:34:34.213Z,14.20
2023-04-08T12:37:02.454Z,14.20
2023-04-08T12:39:30.468Z,14.30
2023-04-08T12:41:59.460Z,14.30
2023-04-08T12:44:28.921Z,14.30
2023-04-08T12:46:58.274Z,14.40
2023-04-08T12:49:28.020Z,14.50
2023-04-08T12:51:56.026Z,14.40
2023-04-08T12:54:23.909Z,14.40
2023-04-08T12:56:51.809Z,14.40
2023-04-08T12:59:19.876Z,14.50
2023-04-08T13:01:49.188Z,14.50
2023-04-08T13:04:17.178Z,14.50
2023-04-08T13:06:45.527Z,14.50
2023-04-08T13:09:15.080Z,14.50
2023-04-08T13:11:42.990Z,14.50
2023-04-08T13:14:11.174Z,14.60
2023-04-08T13:16:39.287Z,14.60
2023-04-08T13:19:08.635Z,14.70
2023-04-08T13:21:36.761Z,14.70
2023-04-08T13:24:05.068Z,14.80
2023-04-08T13:26:33.047Z,14.80
2023-04-08T13:29:01.395Z,14.80
2023-04-08T13:31:29.584Z,14.90
2023-04-08T13:33:58.355Z,15.00
2023-04-08T13:36:28.480Z,15.10
2023-04-08T13:38:56.658Z,15.10
2023-04-08T13:41:25.554Z,15.30
2023-04-08T13:43:53.727Z,15.40
2023-04-08T13:46:21.814Z,15.60
2023-04-08T13:48:50.315Z,15.70
2023-04-08T13:51:18.522Z,15.90
2023-04-08T13:53:47.991Z,16.10
2023-04-08T13:56:16.026Z,16.20
2023-04-08T13:58:46.172Z,16.30
2023-04-08T14:01:18.368Z,16.40
2023-04-08T14:03:46.562Z,16.60
2023-04-08T14:06:14.473Z,16.80
2023-04-08T14:08:42.901Z,17.00
2023-04-08T14:11:12.251Z,17.20
2023-04-08T14:13:40.361Z,17.30
2023-04-08T14:16:08.535Z,17.60
2023-04-08T14:18:36.616Z,17.70
2023-04-08T14:21:05.380Z,17.90
2023-04-08T14:23:33.345Z,18.00
2023-04-08T14:26:01.596Z,18.20
2023-04-08T14:28:30.941Z,18.40
2023-04-08T14:30:59.012Z,18.50
2023-04-08T14:33:27.196Z,18.80
2023-04-08T14:35:55.534Z,19.00
2023-04-08T14:38:23.442Z,19.30
2023-04-08T14:40:52.355Z,19.40
2023-04-08T14:43:20.624Z,19.60
2023-04-08T14:45:51.306Z,19.70
2023-04-08T14:48:19.542Z,19.90
2023-04-08T14:50:47.474Z,20.10
2023-04-08T14:53:15.496Z,20.20
2023-04-08T14:55:43.402Z,20.30
2023-04-08T14:58:11.387Z,20.40
2023-04-08T15:00:44.121Z,20.60
2023-04-08T15:03:13.588Z,20.70
2023-04-08T15:05:42.708Z,20.90
2023-04-08T15:08:10.847Z,21.00
2023-04-08T15:10:39.001Z,21.20
2023-04-08T15:13:07.292Z,21.30
2023-04-08T15:15:35.365Z,21.40
2023-04-08T15:18:03.421Z,21.50
2023-04-08T15:20:32.799Z,21.60
2023-04-08T15:23:00.724Z,21.80
2023-04-08T15:25:28.685Z,21.70
2023-04-08T15:27:57.282Z,21.70
2023-04-08T15:30:25.568Z,21.80
2023-04-08T15:32:55.602Z,21.80
2023-04-08T15:35:24.885Z,21.90
2023-04-08T15:37:54.252Z,22.00
2023-04-08T15:40:22.357Z,22.00
2023-04-08T15:42:50.593Z,22.10
2023-04-08T15:45:18.667Z,22.20
2023-04-08T15:47:48.664Z,22.30
2023-04-08T15:50:17.304Z,22.40
2023-04-08T15:52:45.577Z,22.40
2023-04-08T15:55:15.160Z,22.30
2023-04-08T15:57:43.190Z,22.30
2023-04-08T16:00:13.197Z,22.20
2023-04-08T16:02:42.516Z,22.20
2023-04-08T16:05:12.410Z,22.10
2023-04-08T16:07:42.038Z,22.00
2023-04-08T16:10:10.262Z,22.00
2023-04-08T16:12:39.679Z,21.70
2023-04-08T16:15:08.514Z,21.40
2023-04-08T16:17:36.501Z,21.10
2023-04-08T16:20:04.936Z,20.70
2023-04-08T16:22:32.950Z,20.40
2023-04-08T16:25:01.233Z,20.10
2023-04-08T16:27:29.221Z,19.70
2023-04-08T16:29:58.513Z,19.50
2023-04-08T16:32:26.793Z,19.20
2023-04-08T16:34:54.714Z,18.80
2023-04-08T16:37:22.615Z,18.60
2023-04-08T16:39:50.570Z,18.30
2023-04-08T16:42:19.110Z,18.10
2023-04-08T16:44:47.300Z,17.90
2023-04-08T16:47:16.662Z,17.60
2023-04-08T16:49:44.604Z,17.50
2023-04-08T16:52:15.051Z,17.30
2023-04-08T16:54:44.315Z,17.10
2023-04-08T16:57:12.286Z,17.00
2023-04-08T16:59:40.370Z,16.80
2023-04-08T17:02:08.855Z,16.70
2023-04-08T17:04:38.210Z,16.60
2023-04-08T17:07:06.582Z,16.40
2023-04-08T17:09:34.703Z,16.40
2023-04-08T17:12:03.131Z,16.20
2023-04-08T17:14:31.203Z,16.10
2023-04-08T17:16:59.101Z,16.00
2023-04-08T17:19:27.437Z,16.00
2023-04-08T17:21:56.726Z,15.90
2023-04-08T17:24:24.642Z,15.80
2023-04-08T17:26:52.625Z,15.70
2023-04-08T17:29:20.847Z,15.60
2023-04-08T17:31:48.833Z,15.60
2023-04-08T17:34:16.970Z,15.50
2023-04-08T17:36:45.891Z,15.50
2023-04-08T17:39:16.290Z,15.40
2023-04-08T17:41:45.813Z,15.30
2023-04-08T17:44:14.034Z,15.30
2023-04-08T17:46:42.029Z,15.30
2023-04-08T17:49:11.465Z,15.20
2023-04-08T17:51:39.724Z,15.20
2023-04-08T17:54:07.608Z,15.10
2023-04-08T17:56:36.904Z,15.00
2023-04-08T17:59:04.845Z,15.00
2023-04-08T18:01:33.018Z,15.00
2023-04-08T18:04:01.158Z,14.90
2023-04-08T18:06:29.312Z,14.80
2023-04-08T18:08:57.708Z,14.80
2023-04-08T18:11:27.201Z,14.80
2023-04-08T18:13:56.457Z,14.70
2023-04-08T18:16:24.429Z,14.70
2023-04-08T18:18:52.707Z,14.60
2023-04-08T18:21:22.027Z,14.60
2023-04-08T18:23:50.943Z,14.50
2023-04-08T18:26:19.329Z,14.50
2023-04-08T18:28:47.217Z,14.40
2023-04-08T18:31:16.566Z,14.40
2023-04-08T18:33:44.576Z,14.30
2023-04-08T18:36:13.833Z,14.30
2023-04-08T18:38:42.024Z,14.30
2023-04-08T18:41:10.076Z,14.20
2023-04-08T18:43:38.036Z,14.20
2023-04-08T18:46:05.954Z,14.10
2023-04-08T18:48:35.775Z,14.10
2023-04-08T18:51:03.769Z,14.10
2023-04-08T18:53:34.700Z,14.00
2023-04-08T18:56:02.813Z,14.00
2023-04-08T18:58:31.496Z,13.90
2023-04-08T19:00:59.470Z,13.90
2023-04-08T19:03:27.479Z,13.80
2023-04-08T19:05:56.941Z,13.80
2023-04-08T19:08:24.838Z,13.80
2023-04-08T19:10:52.939Z,13.70
2023-04-08T19:13:22.152Z,13.70
2023-04-08T19:15:50.205Z,13.60
2023-04-08T19:18:18.235Z,13.60
2023-04-08T19:20:46.916Z,13.60
2023-04-08T19:23:18.241Z,13.50
2023-04-08T19:25:47.264Z,13.50
2023-04-08T19:28:15.380Z,13.50
2023-04-08T19:30:43.288Z,13.50
2023-04-08T19:33:11.216Z,13.40
2023-04-08T19:35:39.421Z,13.40
2023-04-08T19:38:08.292Z,13.40
2023-04-08T19:40:38.067Z,13.40
2023-04-08T19:43:06.384Z,13.30
2023-04-08T19:45:34.528Z,13.30
2023-04-08T19:48:02.470Z,13.30
2023-04-08T19:50:30.401Z,13.30
2023-04-08T19:52:58.392Z,13.20
2023-04-08T19:55:26.646Z,13.20
2023-04-08T19:57:56.002Z,13.20
2023-04-08T20:00:25.004Z,13.20
2023-04-08T20:02:55.339Z,13.10
2023-04-08T20:05:23.562Z,13.10
2023-04-08T20:07:51.467Z,13.10
2023-04-08T20:10:20.515Z,13.10
2023-04-08T20:12:48.660Z,13.10
2023-04-08T20:15:24.554Z,13.00
2023-04-08T20:17:54.235Z,13.00
2023-04-08T20:20:22.771Z,13.00
2023-04-08T20:22:50.949Z,12.90
2023-04-08T20:25:19.140Z,13.00
2023-04-08T20:27:47.130Z,12.90
2023-04-08T20:30:15.162Z,12.90
2023-04-08T20:32:44.531Z,12.90
2023-04-08T20:35:13.401Z,12.90
2023-04-08T20:37:41.654Z,12.80
2023-04-08T20:40:10.612Z,12.80
2023-04-08T20:42:38.854Z,12.80
2023-04-08T20:45:08.054Z,12.90
2023-04-08T20:47:36.058Z,12.80
2023-04-08T20:50:06.474Z,12.80
2023-04-08T20:52:34.953Z,12.80
2023-04-08T20:55:02.876Z,12.80
2023-04-08T20:57:31.183Z,12.80
2023-04-08T20:59:59.293Z,12.70
2023-04-08T21:02:27.360Z,12.70
2023-04-08T21:04:55.348Z,12.70
2023-04-08T21:07:25.921Z,12.70
2023-04-08T21:09:53.994Z,12.70
2023-04-08T21:12:22.212Z,12.70
2023-04-08T21:14:50.875Z,12.60
2023-04-08T21:17:18.795Z,12.60
2023-04-08T21:19:47.000Z,12.60
2023-04-08T21:22:16.269Z,12.60
2023-04-08T21:24:45.596Z,12.50
2023-04-08T21:27:13.540Z,12.50
2023-04-08T21:29:41.646Z,12.50
2023-04-08T21:32:09.682Z,12.50
2023-04-08T21:34:37.723Z,12.50
2023-04-08T21:37:06.079Z,12.50
2023-04-08T21:39:34.093Z,12.40
2023-04-08T21:42:03.368Z,12.40
2023-04-08T21:44:31.358Z,12.40
2023-04-08T21:47:01.550Z,12.40
2023-04-08T21:49:30.689Z,12.30
2023-04-08T21:51:58.719Z,12.30
2023-04-08T21:54:26.670Z,12.30
2023-04-08T21:56:54.607Z,12.30
2023-04-08T21:59:23.924Z,12.30
2023-04-08T22:01:51.936Z,12.30
2023-04-08T22:04:20.441Z,12.30
2023-04-08T22:06:49.644Z,12.20
2023-04-08T22:09:17.775Z,12.20
2023-04-08T22:11:45.949Z,12.20
2023-04-08T22:14:15.600Z,12.20
2023-04-08T22:16:45.300Z,12.20
2023-04-08T22:19:13.287Z,12.20
2023-04-08T22:21:41.337Z,12.20
2023-04-08T22:24:09.288Z,12.10
2023-04-08T22:26:37.278Z,12.10
2023-04-08T22:29:05.728Z,12.10
2023-04-08T22:31:33.648Z,12.10
2023-04-08T22:34:02.996Z,12.10
2023-04-08T22:36:31.046Z,12.10
2023-04-08T22:38:59.011Z,12.00
2023-04-08T22:41:27.070Z,12.00
2023-04-08T22:43:55.111Z,12.00
2023-04-08T22:46:23.106Z,12.00
2023-04-08T22:48:51.358Z,12.00
2023-04-08T22:51:20.946Z,12.00
2023-04-08T22:53:48.893Z,12.00
2023-04-08T22:56:16.852Z,12.00
2023-04-08T22:58:44.774Z,11.90
2023-04-08T23:01:13.695Z,11.90
2023-04-08T23:03:42.165Z,11.90
2023-04-08T23:06:10.229Z,11.90
2023-04-08T23:08:39.794Z,11.80
2023-04-08T23:11:08.119Z,11.80
2023-04-08T23:13:36.281Z,11.80
2023-04-08T23:16:04.312Z,11.80
2023-04-08T23:18:32.315Z,11.80
2023-04-08T23:21:00.261Z,11.80
2023-04-08T23:23:28.250Z,11.80
2023-04-08T23:25:57.583Z,11.80
2023-04-08T23:28:25.555Z,11.80
2023-04-08T23:30:54.206Z,11.70
2023-04-08T23:33:22.197Z,11.70
2023-04-08T23:35:50.169Z,11.70
2023-04-08T23:38:18.105Z,11.70
2023-04-08T23:40:46.102Z,11.70
2023-04-08T23:43:15.490Z,11.70
2023-04-08T23:45:43.531Z,11.70
2023-04-08T23:48:11.603Z,11.60
2023-04-08T23:50:39.528Z,11.70
2023-04-08T23:53:07.447Z,11.60
2023-04-08T23:55:35.473Z,11.60
2023-04-08T23:58:03.352Z,11.60
